Time;durP1;ratioP1;P1;durP2;ratioP2;P2;SDS_P1;SDS_P2;PMS_P1;PMS_P2;Temp;Humidity;BMP_temperature;BMP_pressure;BME280_temperature;BME280_humidity;BME280_pressure;Samples;Min_cycle;Max_cycle;Signal;HPM_P1;HPM_P2
2023/02/27 00:01:40;;;;;;;17.3;9.9;;;;;;;0.5;76.1;99160;;;;
2023/02/27 00:11:42;;;;;;;17.3;9.9;;;;;;;0.6;76;99160;;;;
2023/02/27 00:21:40;;;;;;;17.3;9.9;;;;;;;0.6;76.1;99160;;;;
2023/02/27 00:31:40;;;;;;;14.2;8.7;;;;;;;0.6;76;99160;;;;
2023/02/27 00:42:40;;;;;;;14.2;8.7;;;;;;;0.6;75.9;99170;;;;
2023/02/27 00:53:40;;;;;;;14.2;8.7;;;;;;;0.6;76.1;99170;;;;
2023/02/27 01:03:40;;;;;;;12.4;6.8;;;;;;;0.5;76.2;99170;;;;
2023/02/27 01:14:42;;;;;;;12.4;6.8;;;;;;;0.5;76.6;99170;;;;
2023/02/27 01:24:40;;;;;;;12.4;6.8;;;;;;;0.4;76.6;99180;;;;
2023/02/27 01:35:40;;;;;;;12.8;7.6;;;;;;;0.5;76.3;99190;;;;
2023/02/27 01:45:40;;;;;;;12.8;7.6;;;;;;;0.4;75.1;99200;;;;
2023/02/27 01:55:40;;;;;;;12.8;7.6;;;;;;;0.3;74.3;99200;;;;
2023/02/27 02:06:40;;;;;;;9.6;4.3;;;;;;;0.2;72.5;99210;;;;
2023/02/27 02:17:42;;;;;;;9.6;4.3;;;;;;;0.2;72.4;99190;;;;
2023/02/27 02:28:40;;;;;;;5.3;3;;;;;;;0.1;72.3;99190;;;;
2023/02/27 02:38:40;;;;;;;5.3;3;;;;;;;-0.1;72.3;99210;;;;
2023/02/27 02:49:40;;;;;;;5.3;3;;;;;;;-0.2;72.2;99210;;;;
2023/02/27 02:59:40;;;;;;;3.9;2;;;;;;;-0.3;71.7;99230;;;;
2023/02/27 03:09:40;;;;;;;3.9;2;;;;;;;-0.3;71.4;99230;;;;
2023/02/27 03:19:40;;;;;;;3.9;2;;;;;;;-0.3;71.3;99240;;;;
2023/02/27 03:29:41;;;;;;;4.3;1.6;;;;;;;-0.3;70.5;99250;;;;
2023/02/27 03:40:40;;;;;;;4.3;1.6;;;;;;;-0.3;69.4;99260;;;;
2023/02/27 03:51:40;;;;;;;4.3;1.6;;;;;;;-0.3;69.1;99270;;;;
2023/02/27 04:02:40;;;;;;;4;1.7;;;;;;;-0.3;67.4;99280;;;;
2023/02/27 04:12:41;;;;;;;4;1.7;;;;;;;-0.3;66.5;99290;;;;
2023/02/27 04:22:41;;;;;;;4;1.7;;;;;;;-0.3;65.4;99310;;;;
2023/02/27 04:33:40;;;;;;;2.5;1.1;;;;;;;-0.4;64.5;99310;;;;
2023/02/27 04:43:40;;;;;;;2.5;1.1;;;;;;;-0.4;64.1;99310;;;;
2023/02/27 04:54:40;;;;;;;2.5;1.1;;;;;;;-0.4;64;99310;;;;
2023/02/27 05:05:40;;;;;;;2.5;1;;;;;;;-0.4;62.8;99320;;;;
2023/02/27 05:15:40;;;;;;;2.5;1;;;;;;;-0.5;61.6;99330;;;;
2023/02/27 05:25:40;;;;;;;2.5;1;;;;;;;-0.4;61.6;99350;;;;
2023/02/27 05:35:40;;;;;;;2.9;1.1;;;;;;;-0.3;60.9;99350;;;;
2023/02/27 05:45:40;;;;;;;2.9;1.1;;;;;;;-0.3;60.5;99350;;;;
2023/02/27 05:55:41;;;;;;;2.9;1.1;;;;;;;-0.2;61.7;99360;;;;
2023/02/27 06:06:40;;;;;;;1.6;0.9;;;;;;;-0.2;62;99360;;;;
2023/02/27 06:16:41;;;;;;;1.6;0.9;;;;;;;-0.1;62.1;99380;;;;
2023/02/27 06:27:40;;;;;;;3.4;1.3;;;;;;;0;62.8;99390;;;;
2023/02/27 06:38:41;;;;;;;3.4;1.3;;;;;;;0.1;63.3;99390;;;;
2023/02/27 06:48:40;;;;;;;3.4;1.3;;;;;;;0.3;64.1;99400;;;;
2023/02/27 06:58:41;;;;;;;2.6;1.9;;;;;;;0.3;66.7;99400;;;;
2023/02/27 07:09:41;;;;;;;2.6;1.9;;;;;;;0.4;68.8;99410;;;;
2023/02/27 07:20:41;;;;;;;2.6;1.9;;;;;;;0.5;71.1;99420;;;;
2023/02/27 07:30:40;;;;;;;6.3;2.3;;;;;;;0.6;71.4;99430;;;;
2023/02/27 07:40:41;;;;;;;6.3;2.3;;;;;;;0.7;70.3;99440;;;;
2023/02/27 07:51:41;;;;;;;6.3;2.3;;;;;;;0.8;69.7;99450;;;;
2023/02/27 08:02:41;;;;;;;6.9;3.5;;;;;;;1.1;69.3;99460;;;;
2023/02/27 08:13:41;;;;;;;6.9;3.5;;;;;;;1.3;68.4;99460;;;;
2023/02/27 08:23:41;;;;;;;6.9;3.5;;;;;;;1.7;67.6;99470;;;;
2023/02/27 08:33:41;;;;;;;5.7;2.8;;;;;;;1.9;66.8;99480;;;;
2023/02/27 08:43:41;;;;;;;5.7;2.8;;;;;;;2.1;65.4;99480;;;;
2023/02/27 08:53:41;;;;;;;5.7;2.8;;;;;;;2.5;64.7;99480;;;;
2023/02/27 09:04:41;;;;;;;8.7;3.2;;;;;;;2.4;63;99500;;;;
2023/02/27 09:14:41;;;;;;;8.7;3.2;;;;;;;2.6;61.2;99510;;;;
2023/02/27 09:24:41;;;;;;;8.7;3.2;;;;;;;2.7;59.5;99510;;;;
2023/02/27 09:34:41;;;;;;;7.3;2.6;;;;;;;2.7;58.4;99520;;;;
2023/02/27 09:44:43;;;;;;;7.3;2.6;;;;;;;2.8;57.6;99520;;;;
2023/02/27 09:55:41;;;;;;;134.1;81.8;;;;;;;2.8;58.7;99530;;;;
2023/02/27 10:05:41;;;;;;;134.1;81.8;;;;;;;2.6;58.5;99540;;;;
2023/02/27 10:15:41;;;;;;;134.1;81.8;;;;;;;2.5;57.7;99540;;;;
2023/02/27 10:26:41;;;;;;;461.2;325.5;;;;;;;2.4;58.7;99550;;;;
2023/02/27 10:36:41;;;;;;;461.2;325.5;;;;;;;2.4;58.3;99540;;;;
2023/02/27 10:47:41;;;;;;;461.2;325.5;;;;;;;3;58.7;99540;;;;
2023/02/27 10:58:41;;;;;;;6.9;3.1;;;;;;;3;57.9;99550;;;;
2023/02/27 11:08:42;;;;;;;6.9;3.1;;;;;;;2.8;58.7;99550;;;;
2023/02/27 11:18:42;;;;;;;6.9;3.1;;;;;;;2.3;61.6;99560;;;;
2023/02/27 11:28:41;;;;;;;7.4;3.2;;;;;;;1.6;67.5;99560;;;;
2023/02/27 11:38:41;;;;;;;7.4;3.2;;;;;;;1.4;71.5;99560;;;;
2023/02/27 11:48:41;;;;;;;7.4;3.2;;;;;;;1.1;75;99560;;;;
2023/02/27 11:59:41;;;;;;;10.4;3.4;;;;;;;1.4;75.4;99550;;;;
2023/02/27 12:09:41;;;;;;;10.4;3.4;;;;;;;1.7;74.2;99550;;;;
2023/02/27 12:20:41;;;;;;;10.4;3.4;;;;;;;1.8;72.6;99560;;;;
2023/02/27 12:30:41;;;;;;;15.4;6.7;;;;;;;1.9;72.8;99570;;;;
2023/02/27 12:40:41;;;;;;;15.4;6.7;;;;;;;1.9;73.1;99570;;;;
2023/02/27 12:50:41;;;;;;;15.4;6.7;;;;;;;2;72.2;99580;;;;
2023/02/27 13:00:43;;;;;;;11.1;4.9;;;;;;;2.3;70.4;99590;;;;
2023/02/27 13:11:42;;;;;;;11.1;4.9;;;;;;;2.3;69.4;99590;;;;
2023/02/27 13:21:41;;;;;;;11.1;4.9;;;;;;;2.4;70.1;99600;;;;
2023/02/27 13:32:41;;;;;;;10.1;4.9;;;;;;;2.5;69.7;99590;;;;
2023/02/27 13:43:41;;;;;;;10.1;4.9;;;;;;;2.7;69.4;99600;;;;
2023/02/27 13:54:41;;;;;;;13;5.3;;;;;;;2.5;69.1;99590;;;;
2023/02/27 14:05:41;;;;;;;13;5.3;;;;;;;2.4;69.6;99600;;;;
2023/02/27 14:15:41;;;;;;;13;5.3;;;;;;;2.3;70.1;99610;;;;
2023/02/27 14:25:41;;;;;;;11.4;5.9;;;;;;;2.3;70.1;99610;;;;
2023/02/27 14:36:41;;;;;;;11.4;5.9;;;;;;;2.4;70.1;99610;;;;
2023/02/27 14:47:41;;;;;;;11.4;5.9;;;;;;;2.4;69.2;99620;;;;
2023/02/27 14:57:41;;;;;;;9.7;4.8;;;;;;;2.4;69.2;99630;;;;
2023/02/27 15:08:41;;;;;;;9.7;4.8;;;;;;;2.4;69.1;99640;;;;
2023/02/27 15:19:41;;;;;;;9.7;4.8;;;;;;;2.3;69;99640;;;;
2023/02/27 15:29:41;;;;;;;115.3;51.8;;;;;;;2.2;69.5;99660;;;;
2023/02/27 15:40:41;;;;;;;115.3;51.8;;;;;;;1.8;70.9;99660;;;;
2023/02/27 15:50:41;;;;;;;115.3;51.8;;;;;;;1.8;69.9;99680;;;;
2023/02/27 16:01:41;;;;;;;13.5;7.8;;;;;;;1.5;68.5;99690;;;;
2023/02/27 16:11:41;;;;;;;13.5;7.8;;;;;;;1.4;69.4;99690;;;;
2023/02/27 16:21:41;;;;;;;13.5;7.8;;;;;;;1.3;70.8;99710;;;;
2023/02/27 16:32:42;;;;;;;15.6;8.3;;;;;;;1.1;71.7;99720;;;;
2023/02/27 16:43:41;;;;;;;15.6;8.3;;;;;;;0.9;71.1;99740;;;;
2023/02/27 16:54:41;;;;;;;25.2;10.9;;;;;;;0.7;70.7;99750;;;;
2023/02/27 17:05:41;;;;;;;25.2;10.9;;;;;;;0.7;72;99760;;;;
2023/02/27 17:15:41;;;;;;;25.2;10.9;;;;;;;0.6;73.6;99770;;;;
2023/02/27 17:26:41;;;;;;;20.4;10.7;;;;;;;0.7;74;99790;;;;
2023/02/27 17:36:41;;;;;;;20.4;10.7;;;;;;;0.7;74.2;99800;;;;
2023/02/27 17:47:42;;;;;;;20.4;10.7;;;;;;;0.6;73.3;99800;;;;
2023/02/27 17:58:44;;;;;;;13;7;;;;;;;0.7;72.5;99800;;;;
2023/02/27 18:09:44;;;;;;;13;7;;;;;;;0.6;72.3;99810;;;;
2023/02/27 18:20:41;;;;;;;13;7;;;;;;;0.6;72.1;99820;;;;
2023/02/27 18:31:41;;;;;;;14.9;6.6;;;;;;;0.6;72.4;99830;;;;
2023/02/27 18:41:41;;;;;;;14.9;6.6;;;;;;;0.6;71.9;99850;;;;
2023/02/27 18:51:41;;;;;;;14.9;6.6;;;;;;;0.5;71.2;99850;;;;
2023/02/27 19:01:41;;;;;;;17.1;7.9;;;;;;;0.6;70.8;99860;;;;
2023/02/27 19:11:41;;;;;;;17.1;7.9;;;;;;;0.6;71;99870;;;;
2023/02/27 19:21:41;;;;;;;17.1;7.9;;;;;;;0.5;70.7;99880;;;;
2023/02/27 19:32:41;;;;;;;12.3;6.4;;;;;;;0.6;70.8;99890;;;;
2023/02/27 19:42:43;;;;;;;12.3;6.4;;;;;;;0.6;71;99890;;;;
2023/02/27 19:53:41;;;;;;;12.8;6.5;;;;;;;0.5;71.2;99900;;;;
2023/02/27 20:03:41;;;;;;;12.8;6.5;;;;;;;0.5;71.8;99900;;;;
2023/02/27 20:14:41;;;;;;;12.8;6.5;;;;;;;0.4;72.2;99920;;;;
2023/02/27 20:24:43;;;;;;;15.9;7.2;;;;;;;0.4;72.3;99920;;;;
2023/02/27 20:34:42;;;;;;;15.9;7.2;;;;;;;0.4;72.6;99920;;;;
2023/02/27 20:45:41;;;;;;;15.9;7.2;;;;;;;0.4;72.8;99930;;;;
2023/02/27 20:55:42;;;;;;;12.4;7;;;;;;;0.4;72.8;99930;;;;
2023/02/27 21:06:41;;;;;;;12.4;7;;;;;;;0.4;73;99920;;;;
2023/02/27 21:17:41;;;;;;;12.4;7;;;;;;;0.3;73.1;99920;;;;
2023/02/27 21:28:46;;;;;;;19.4;9.8;;;;;;;0.3;72.9;99930;;;;
2023/02/27 21:38:41;;;;;;;19.4;9.8;;;;;;;0.3;72.6;99940;;;;
2023/02/27 21:49:41;;;;;;;19.4;9.8;;;;;;;0.3;72.6;99950;;;;
2023/02/27 22:00:42;;;;;;;12.1;6.8;;;;;;;0.2;72.9;99950;;;;
2023/02/27 22:10:44;;;;;;;12.1;6.8;;;;;;;0.3;72.9;99950;;;;
2023/02/27 22:21:41;;;;;;;12.1;6.8;;;;;;;0.3;73.1;99950;;;;
2023/02/27 22:31:41;;;;;;;14.5;6.7;;;;;;;0.2;73.1;99950;;;;
2023/02/27 22:42:41;;;;;;;14.5;6.7;;;;;;;0.2;73.2;99950;;;;
2023/02/27 22:52:41;;;;;;;14.5;6.7;;;;;;;0.2;73.3;99960;;;;
2023/02/27 23:02:42;;;;;;;14.4;7.8;;;;;;;0.2;73;99960;;;;
2023/02/27 23:12:41;;;;;;;14.4;7.8;;;;;;;0.2;73.3;99960;;;;
2023/02/27 23:23:41;;;;;;;16.4;8.5;;;;;;;0.1;73.3;99950;;;;
2023/02/27 23:33:41;;;;;;;16.4;8.5;;;;;;;0.1;73.1;99960;;;;
2023/02/27 23:54:42;;;;;;;14.5;8.2;;;;;;;0;72.9;99970;;;;
